sensor_id;sensor_type;location;lat;lon;timestamp;P1;durP1;ratioP1;P2;durP2;ratioP2
78856;SDS011;68207;50.078;19.936;2024-03-23T00:54:11;44.60;;;29.70;;
78856;SDS011;68207;50.078;19.936;2024-03-23T00:56:36;44.60;;;30.30;;
78856;SDS011;68207;50.078;19.936;2024-03-23T00:59:01;49.60;;;31.30;;
78856;SDS011;68207;50.078;19.936;2024-03-23T01:01:26;48.20;;;31.00;;
78856;SDS011;68207;50.078;19.936;2024-03-23T01:03:51;46.50;;;32.00;;
78856;SDS011;68207;50.078;19.936;2024-03-23T01:06:16;44.60;;;31.20;;
78856;SDS011;68207;50.078;19.936;2024-03-23T01:08:41;50.00;;;32.20;;
78856;SDS011;68207;50.078;19.936;2024-03-23T01:11:07;48.00;;;31.30;;
78856;SDS011;68207;50.078;19.936;2024-03-23T01:13:32;52.20;;;32.70;;
78856;SDS011;68207;50.078;19.936;2024-03-23T01:15:57;50.70;;;33.10;;
78856;SDS011;68207;50.078;19.936;2024-03-23T01:18:23;52.60;;;34.00;;
78856;SDS011;68207;50.078;19.936;2024-03-23T01:20:48;48.90;;;33.10;;
78856;SDS011;68207;50.078;19.936;2024-03-23T01:23:13;50.00;;;32.00;;
78856;SDS011;68207;50.078;19.936;2024-03-23T01:25:39;49.20;;;31.80;;
78856;SDS011;68207;50.078;19.936;2024-03-23T01:28:04;50.70;;;31.00;;
78856;SDS011;68207;50.078;19.936;2024-03-23T01:30:29;49.50;;;32.10;;
78856;SDS011;68207;50.078;19.936;2024-03-23T01:32:55;48.40;;;32.20;;
78856;SDS011;68207;50.078;19.936;2024-03-23T01:35:20;50.70;;;34.00;;
78856;SDS011;68207;50.078;19.936;2024-03-23T01:37:45;50.60;;;33.10;;
78856;SDS011;68207;50.078;19.936;2024-03-23T01:40:11;47.60;;;32.40;;
78856;SDS011;68207;50.078;19.936;2024-03-23T01:42:38;47.30;;;32.20;;
78856;SDS011;68207;50.078;19.936;2024-03-23T01:45:04;51.00;;;34.70;;
78856;SDS011;68207;50.078;19.936;2024-03-23T01:47:33;50.20;;;33.70;;
78856;SDS011;68207;50.078;19.936;2024-03-23T01:49:58;53.20;;;34.50;;
78856;SDS011;68207;50.078;19.936;2024-03-23T01:52:23;51.70;;;34.60;;
78856;SDS011;68207;50.078;19.936;2024-03-23T01:54:49;50.90;;;34.40;;
78856;SDS011;68207;50.078;19.936;2024-03-23T01:57:14;50.20;;;33.90;;
78856;SDS011;68207;50.078;19.936;2024-03-23T01:59:40;50.90;;;34.70;;
78856;SDS011;68207;50.078;19.936;2024-03-23T02:02:05;54.20;;;34.30;;
78856;SDS011;68207;50.078;19.936;2024-03-23T02:04:30;53.10;;;35.70;;
78856;SDS011;68207;50.078;19.936;2024-03-23T02:06:56;54.90;;;35.50;;
78856;SDS011;68207;50.078;19.936;2024-03-23T02:09:21;55.50;;;35.60;;
78856;SDS011;68207;50.078;19.936;2024-03-23T02:11:46;52.10;;;34.80;;
78856;SDS011;68207;50.078;19.936;2024-03-23T02:14:11;54.20;;;35.40;;
78856;SDS011;68207;50.078;19.936;2024-03-23T02:16:36;51.90;;;35.50;;
78856;SDS011;68207;50.078;19.936;2024-03-23T02:19:01;51.50;;;35.20;;
78856;SDS011;68207;50.078;19.936;2024-03-23T02:21:27;56.60;;;34.90;;
78856;SDS011;68207;50.078;19.936;2024-03-23T02:23:52;53.30;;;34.00;;
78856;SDS011;68207;50.078;19.936;2024-03-23T02:26:17;52.50;;;33.60;;
78856;SDS011;68207;50.078;19.936;2024-03-23T02:28:43;57.10;;;34.90;;
78856;SDS011;68207;50.078;19.936;2024-03-23T02:31:08;54.30;;;35.10;;
78856;SDS011;68207;50.078;19.936;2024-03-23T02:33:33;52.40;;;35.00;;
78856;SDS011;68207;50.078;19.936;2024-03-23T02:35:59;52.90;;;33.40;;
78856;SDS011;68207;50.078;19.936;2024-03-23T02:38:24;51.00;;;34.30;;
78856;SDS011;68207;50.078;19.936;2024-03-23T02:40:50;52.90;;;35.10;;
78856;SDS011;68207;50.078;19.936;2024-03-23T02:43:15;50.10;;;33.00;;
78856;SDS011;68207;50.078;19.936;2024-03-23T02:45:40;51.30;;;33.30;;
78856;SDS011;68207;50.078;19.936;2024-03-23T02:48:05;49.40;;;32.40;;
78856;SDS011;68207;50.078;19.936;2024-03-23T02:50:30;52.60;;;35.00;;
78856;SDS011;68207;50.078;19.936;2024-03-23T02:52:55;50.10;;;33.20;;
78856;SDS011;68207;50.078;19.936;2024-03-23T02:55:21;55.70;;;35.10;;
78856;SDS011;68207;50.078;19.936;2024-03-23T02:57:46;52.60;;;34.00;;
78856;SDS011;68207;50.078;19.936;2024-03-23T03:00:11;51.30;;;33.20;;
78856;SDS011;68207;50.078;19.936;2024-03-23T03:02:37;51.30;;;33.10;;
78856;SDS011;68207;50.078;19.936;2024-03-23T03:05:03;50.70;;;32.30;;
78856;SDS011;68207;50.078;19.936;2024-03-23T03:07:29;45.60;;;32.30;;
78856;SDS011;68207;50.078;19.936;2024-03-23T03:09:55;52.50;;;31.40;;
78856;SDS011;68207;50.078;19.936;2024-03-23T03:12:20;47.50;;;31.40;;
78856;SDS011;68207;50.078;19.936;2024-03-23T03:14:45;45.60;;;31.10;;
78856;SDS011;68207;50.078;19.936;2024-03-23T03:17:10;48.00;;;30.20;;
78856;SDS011;68207;50.078;19.936;2024-03-23T03:19:35;48.50;;;31.00;;
78856;SDS011;68207;50.078;19.936;2024-03-23T03:22:00;45.30;;;30.80;;
78856;SDS011;68207;50.078;19.936;2024-03-23T03:24:26;48.80;;;31.90;;
78856;SDS011;68207;50.078;19.936;2024-03-23T03:26:51;46.80;;;30.60;;
78856;SDS011;68207;50.078;19.936;2024-03-23T03:29:16;43.40;;;29.70;;
78856;SDS011;68207;50.078;19.936;2024-03-23T03:31:42;42.60;;;28.90;;
78856;SDS011;68207;50.078;19.936;2024-03-23T03:34:07;42.30;;;28.90;;
78856;SDS011;68207;50.078;19.936;2024-03-23T03:36:32;44.90;;;29.20;;
78856;SDS011;68207;50.078;19.936;2024-03-23T03:38:58;42.80;;;28.90;;
78856;SDS011;68207;50.078;19.936;2024-03-23T03:41:23;41.70;;;27.90;;
78856;SDS011;68207;50.078;19.936;2024-03-23T03:43:48;45.90;;;28.50;;
78856;SDS011;68207;50.078;19.936;2024-03-23T03:46:13;43.00;;;29.60;;
78856;SDS011;68207;50.078;19.936;2024-03-23T03:48:38;43.80;;;28.80;;
78856;SDS011;68207;50.078;19.936;2024-03-23T03:51:03;44.70;;;29.30;;
78856;SDS011;68207;50.078;19.936;2024-03-23T03:53:29;43.50;;;29.60;;
78856;SDS011;68207;50.078;19.936;2024-03-23T03:55:55;48.80;;;30.80;;
78856;SDS011;68207;50.078;19.936;2024-03-23T03:58:20;45.20;;;30.20;;
78856;SDS011;68207;50.078;19.936;2024-03-23T04:00:45;43.90;;;30.00;;
78856;SDS011;68207;50.078;19.936;2024-03-23T04:03:10;45.90;;;31.00;;
78856;SDS011;68207;50.078;19.936;2024-03-23T04:05:35;43.40;;;30.60;;
78856;SDS011;68207;50.078;19.936;2024-03-23T04:08:01;48.50;;;30.30;;
78856;SDS011;68207;50.078;19.936;2024-03-23T04:10:26;46.80;;;30.40;;
78856;SDS011;68207;50.078;19.936;2024-03-23T04:12:51;45.70;;;30.20;;
78856;SDS011;68207;50.078;19.936;2024-03-23T04:15:17;51.80;;;33.10;;
78856;SDS011;68207;50.078;19.936;2024-03-23T04:17:42;47.10;;;30.10;;
78856;SDS011;68207;50.078;19.936;2024-03-23T04:20:08;45.70;;;30.70;;
78856;SDS011;68207;50.078;19.936;2024-03-23T04:22:36;44.70;;;30.50;;
78856;SDS011;68207;50.078;19.936;2024-03-23T04:25:01;46.60;;;31.30;;
78856;SDS011;68207;50.078;19.936;2024-03-23T04:27:32;45.70;;;31.50;;
78856;SDS011;68207;50.078;19.936;2024-03-23T04:29:57;46.70;;;31.40;;
78856;SDS011;68207;50.078;19.936;2024-03-23T04:32:23;46.90;;;31.00;;
78856;SDS011;68207;50.078;19.936;2024-03-23T04:34:48;45.60;;;30.90;;
78856;SDS011;68207;50.078;19.936;2024-03-23T04:37:13;49.90;;;32.20;;
78856;SDS011;68207;50.078;19.936;2024-03-23T04:39:38;47.00;;;30.10;;
78856;SDS011;68207;50.078;19.936;2024-03-23T04:42:03;50.40;;;32.40;;
78856;SDS011;68207;50.078;19.936;2024-03-23T04:44:29;52.10;;;32.90;;
78856;SDS011;68207;50.078;19.936;2024-03-23T04:46:54;52.10;;;31.10;;
78856;SDS011;68207;50.078;19.936;2024-03-23T04:49:19;51.90;;;30.80;;
78856;SDS011;68207;50.078;19.936;2024-03-23T04:51:44;52.70;;;31.40;;
78856;SDS011;68207;50.078;19.936;2024-03-23T04:54:11;47.80;;;31.70;;
78856;SDS011;68207;50.078;19.936;2024-03-23T04:56:36;47.20;;;30.90;;
78856;SDS011;68207;50.078;19.936;2024-03-23T04:59:02;48.30;;;31.40;;
78856;SDS011;68207;50.078;19.936;2024-03-23T05:01:29;48.70;;;31.90;;
78856;SDS011;68207;50.078;19.936;2024-03-23T05:03:55;48.70;;;31.30;;
78856;SDS011;68207;50.078;19.936;2024-03-23T05:06:21;50.80;;;31.60;;
78856;SDS011;68207;50.078;19.936;2024-03-23T05:08:46;46.20;;;30.80;;
78856;SDS011;68207;50.078;19.936;2024-03-23T05:11:11;47.10;;;30.60;;
78856;SDS011;68207;50.078;19.936;2024-03-23T05:13:36;50.30;;;30.30;;
78856;SDS011;68207;50.078;19.936;2024-03-23T05:16:01;45.90;;;29.40;;
78856;SDS011;68207;50.078;19.936;2024-03-23T05:18:26;46.00;;;29.50;;
78856;SDS011;68207;50.078;19.936;2024-03-23T05:20:56;42.30;;;28.80;;
78856;SDS011;68207;50.078;19.936;2024-03-23T05:23:22;45.70;;;29.80;;
78856;SDS011;68207;50.078;19.936;2024-03-23T05:25:47;43.80;;;31.00;;
78856;SDS011;68207;50.078;19.936;2024-03-23T05:28:13;46.70;;;28.60;;
78856;SDS011;68207;50.078;19.936;2024-03-23T05:30:38;47.40;;;29.80;;
78856;SDS011;68207;50.078;19.936;2024-03-23T05:33:03;47.00;;;29.20;;
78856;SDS011;68207;50.078;19.936;2024-03-23T05:35:28;41.10;;;28.30;;
78856;SDS011;68207;50.078;19.936;2024-03-23T05:37:53;44.50;;;29.10;;
78856;SDS011;68207;50.078;19.936;2024-03-23T05:40:18;51.80;;;31.50;;
78856;SDS011;68207;50.078;19.936;2024-03-23T05:42:44;44.80;;;30.40;;
78856;SDS011;68207;50.078;19.936;2024-03-23T05:45:09;46.30;;;30.10;;
78856;SDS011;68207;50.078;19.936;2024-03-23T05:47:36;45.20;;;30.60;;
78856;SDS011;68207;50.078;19.936;2024-03-23T05:50:01;47.30;;;30.20;;
78856;SDS011;68207;50.078;19.936;2024-03-23T05:52:27;42.80;;;28.70;;
78856;SDS011;68207;50.078;19.936;2024-03-23T05:54:52;43.00;;;29.30;;
78856;SDS011;68207;50.078;19.936;2024-03-23T05:57:17;44.40;;;29.10;;
78856;SDS011;68207;50.078;19.936;2024-03-23T05:59:44;43.60;;;29.00;;
78856;SDS011;68207;50.078;19.936;2024-03-23T06:02:09;41.50;;;29.40;;
78856;SDS011;68207;50.078;19.936;2024-03-23T06:04:35;42.50;;;28.50;;
78856;SDS011;68207;50.078;19.936;2024-03-23T06:07:00;42.60;;;28.10;;
78856;SDS011;68207;50.078;19.936;2024-03-23T06:09:26;43.40;;;30.00;;
78856;SDS011;68207;50.078;19.936;2024-03-23T06:11:51;46.60;;;29.50;;
78856;SDS011;68207;50.078;19.936;2024-03-23T06:14:16;42.80;;;28.30;;
78856;SDS011;68207;50.078;19.936;2024-03-23T06:16:41;38.20;;;27.00;;
78856;SDS011;68207;50.078;19.936;2024-03-23T06:19:06;41.90;;;27.70;;
78856;SDS011;68207;50.078;19.936;2024-03-23T06:21:32;40.40;;;27.70;;
78856;SDS011;68207;50.078;19.936;2024-03-23T06:23:57;38.40;;;27.10;;
78856;SDS011;68207;50.078;19.936;2024-03-23T06:26:22;43.60;;;28.50;;
78856;SDS011;68207;50.078;19.936;2024-03-23T06:28:48;42.60;;;27.50;;
78856;SDS011;68207;50.078;19.936;2024-03-23T06:31:13;37.00;;;26.70;;
78856;SDS011;68207;50.078;19.936;2024-03-23T06:33:38;41.50;;;27.50;;
78856;SDS011;68207;50.078;19.936;2024-03-23T06:36:04;38.30;;;26.50;;
78856;SDS011;68207;50.078;19.936;2024-03-23T06:38:29;40.40;;;27.40;;
78856;SDS011;68207;50.078;19.936;2024-03-23T06:40:55;40.50;;;27.30;;
78856;SDS011;68207;50.078;19.936;2024-03-23T06:43:20;38.50;;;26.30;;
78856;SDS011;68207;50.078;19.936;2024-03-23T06:45:51;38.60;;;25.80;;
78856;SDS011;68207;50.078;19.936;2024-03-23T06:48:17;39.30;;;27.60;;
78856;SDS011;68207;50.078;19.936;2024-03-23T06:50:42;40.60;;;26.40;;
78856;SDS011;68207;50.078;19.936;2024-03-23T06:53:07;38.40;;;27.10;;
78856;SDS011;68207;50.078;19.936;2024-03-23T06:55:32;40.30;;;25.80;;
78856;SDS011;68207;50.078;19.936;2024-03-23T06:57:58;41.40;;;28.20;;
78856;SDS011;68207;50.078;19.936;2024-03-23T07:00:23;37.90;;;26.20;;
78856;SDS011;68207;50.078;19.936;2024-03-23T07:02:48;40.00;;;28.30;;
78856;SDS011;68207;50.078;19.936;2024-03-23T07:05:13;41.10;;;27.50;;
78856;SDS011;68207;50.078;19.936;2024-03-23T07:07:38;39.90;;;27.90;;
78856;SDS011;68207;50.078;19.936;2024-03-23T07:10:04;38.40;;;26.90;;
78856;SDS011;68207;50.078;19.936;2024-03-23T07:12:29;39.00;;;26.70;;
78856;SDS011;68207;50.078;19.936;2024-03-23T07:14:54;40.70;;;27.00;;
78856;SDS011;68207;50.078;19.936;2024-03-23T07:17:20;39.70;;;26.80;;
78856;SDS011;68207;50.078;19.936;2024-03-23T07:19:46;37.50;;;27.60;;
78856;SDS011;68207;50.078;19.936;2024-03-23T07:22:11;42.50;;;28.10;;
78856;SDS011;68207;50.078;19.936;2024-03-23T07:24:36;38.70;;;27.00;;
78856;SDS011;68207;50.078;19.936;2024-03-23T07:27:01;38.80;;;28.20;;
78856;SDS011;68207;50.078;19.936;2024-03-23T07:29:28;42.80;;;29.40;;
78856;SDS011;68207;50.078;19.936;2024-03-23T07:31:53;40.60;;;28.10;;
78856;SDS011;68207;50.078;19.936;2024-03-23T07:34:18;40.00;;;27.30;;
78856;SDS011;68207;50.078;19.936;2024-03-23T07:36:43;41.60;;;29.20;;
78856;SDS011;68207;50.078;19.936;2024-03-23T07:39:09;40.30;;;28.40;;
78856;SDS011;68207;50.078;19.936;2024-03-23T07:41:34;41.60;;;28.10;;
78856;SDS011;68207;50.078;19.936;2024-03-23T07:44:00;41.50;;;28.40;;
78856;SDS011;68207;50.078;19.936;2024-03-23T07:46:25;40.00;;;26.50;;
78856;SDS011;68207;50.078;19.936;2024-03-23T07:48:51;43.60;;;27.90;;
78856;SDS011;68207;50.078;19.936;2024-03-23T07:51:17;39.80;;;26.50;;
78856;SDS011;68207;50.078;19.936;2024-03-23T07:53:43;44.90;;;28.40;;
78856;SDS011;68207;50.078;19.936;2024-03-23T07:56:09;37.60;;;27.10;;
78856;SDS011;68207;50.078;19.936;2024-03-23T07:58:40;39.70;;;26.70;;
78856;SDS011;68207;50.078;19.936;2024-03-23T08:01:05;35.50;;;25.50;;
78856;SDS011;68207;50.078;19.936;2024-03-23T08:03:34;40.50;;;26.00;;
78856;SDS011;68207;50.078;19.936;2024-03-23T08:06:33;38.50;;;26.30;;
78856;SDS011;68207;50.078;19.936;2024-03-23T08:11:24;38.80;;;26.70;;
78856;SDS011;68207;50.078;19.936;2024-03-23T08:13:49;42.10;;;27.60;;
78856;SDS011;68207;50.078;19.936;2024-03-23T08:16:14;38.10;;;26.80;;
78856;SDS011;68207;50.078;19.936;2024-03-23T08:18:39;39.30;;;27.30;;
78856;SDS011;68207;50.078;19.936;2024-03-23T08:21:05;41.10;;;28.50;;
78856;SDS011;68207;50.078;19.936;2024-03-23T08:23:34;42.30;;;26.00;;
78856;SDS011;68207;50.078;19.936;2024-03-23T08:26:03;38.60;;;25.10;;
78856;SDS011;68207;50.078;19.936;2024-03-23T08:28:29;38.70;;;25.40;;
78856;SDS011;68207;50.078;19.936;2024-03-23T08:30:54;37.60;;;24.10;;
78856;SDS011;68207;50.078;19.936;2024-03-23T08:33:20;34.00;;;22.90;;
78856;SDS011;68207;50.078;19.936;2024-03-23T08:35:58;34.30;;;23.60;;
78856;SDS011;68207;50.078;19.936;2024-03-23T08:38:24;33.70;;;22.20;;
78856;SDS011;68207;50.078;19.936;2024-03-23T08:41:05;31.60;;;22.10;;
78856;SDS011;68207;50.078;19.936;2024-03-23T08:43:31;29.90;;;21.00;;
78856;SDS011;68207;50.078;19.936;2024-03-23T08:48:22;31.10;;;19.30;;
78856;SDS011;68207;50.078;19.936;2024-03-23T08:50:47;24.70;;;16.00;;
78856;SDS011;68207;50.078;19.936;2024-03-23T08:53:22;21.90;;;16.20;;
78856;SDS011;68207;50.078;19.936;2024-03-23T08:55:53;23.80;;;16.10;;
78856;SDS011;68207;50.078;19.936;2024-03-23T08:58:18;22.50;;;15.50;;
78856;SDS011;68207;50.078;19.936;2024-03-23T09:00:45;26.40;;;16.10;;
78856;SDS011;68207;50.078;19.936;2024-03-23T09:03:10;23.40;;;15.90;;
78856;SDS011;68207;50.078;19.936;2024-03-23T09:05:38;27.60;;;15.60;;
78856;SDS011;68207;50.078;19.936;2024-03-23T09:08:04;18.90;;;14.40;;
78856;SDS011;68207;50.078;19.936;2024-03-23T09:10:29;21.90;;;15.10;;
78856;SDS011;68207;50.078;19.936;2024-03-23T09:12:54;21.70;;;15.00;;
78856;SDS011;68207;50.078;19.936;2024-03-23T09:15:19;21.90;;;15.20;;
78856;SDS011;68207;50.078;19.936;2024-03-23T09:17:44;23.30;;;15.10;;
78856;SDS011;68207;50.078;19.936;2024-03-23T09:20:10;23.40;;;15.00;;
78856;SDS011;68207;50.078;19.936;2024-03-23T09:22:35;19.70;;;14.00;;
78856;SDS011;68207;50.078;19.936;2024-03-23T09:25:00;20.50;;;14.40;;
78856;SDS011;68207;50.078;19.936;2024-03-23T09:27:25;19.70;;;14.30;;
78856;SDS011;68207;50.078;19.936;2024-03-23T09:29:50;20.10;;;14.70;;
78856;SDS011;68207;50.078;19.936;2024-03-23T09:32:15;19.10;;;14.20;;
78856;SDS011;68207;50.078;19.936;2024-03-23T09:34:41;20.80;;;14.70;;
78856;SDS011;68207;50.078;19.936;2024-03-23T09:37:06;20.30;;;14.30;;
78856;SDS011;68207;50.078;19.936;2024-03-23T09:39:31;17.90;;;13.40;;
78856;SDS011;68207;50.078;19.936;2024-03-23T09:44:22;18.00;;;12.70;;
78856;SDS011;68207;50.078;19.936;2024-03-23T09:46:48;18.30;;;11.90;;
78856;SDS011;68207;50.078;19.936;2024-03-23T09:49:13;14.30;;;11.50;;
78856;SDS011;68207;50.078;19.936;2024-03-23T09:51:38;15.90;;;11.10;;
78856;SDS011;68207;50.078;19.936;2024-03-23T09:54:04;19.90;;;12.30;;
78856;SDS011;68207;50.078;19.936;2024-03-23T09:56:29;14.50;;;10.70;;
78856;SDS011;68207;50.078;19.936;2024-03-23T09:59:03;14.70;;;10.20;;
78856;SDS011;68207;50.078;19.936;2024-03-23T10:01:31;12.60;;;10.20;;
78856;SDS011;68207;50.078;19.936;2024-03-23T10:03:56;14.50;;;10.00;;
78856;SDS011;68207;50.078;19.936;2024-03-23T10:06:22;13.40;;;10.20;;
78856;SDS011;68207;50.078;19.936;2024-03-23T10:08:49;13.90;;;9.50;;
78856;SDS011;68207;50.078;19.936;2024-03-23T10:11:15;11.50;;;9.90;;
78856;SDS011;68207;50.078;19.936;2024-03-23T10:13:41;14.20;;;8.80;;
78856;SDS011;68207;50.078;19.936;2024-03-23T10:16:06;14.10;;;9.40;;
78856;SDS011;68207;50.078;19.936;2024-03-23T10:18:31;11.20;;;8.70;;
78856;SDS011;68207;50.078;19.936;2024-03-23T10:21:08;11.00;;;8.20;;
78856;SDS011;68207;50.078;19.936;2024-03-23T10:23:34;12.10;;;8.70;;
78856;SDS011;68207;50.078;19.936;2024-03-23T10:26:12;10.50;;;7.50;;
78856;SDS011;68207;50.078;19.936;2024-03-23T10:28:38;8.70;;;7.70;;
78856;SDS011;68207;50.078;19.936;2024-03-23T10:31:15;9.40;;;7.00;;
78856;SDS011;68207;50.078;19.936;2024-03-23T10:33:44;9.10;;;6.70;;
78856;SDS011;68207;50.078;19.936;2024-03-23T10:36:09;11.30;;;7.50;;
78856;SDS011;68207;50.078;19.936;2024-03-23T10:38:34;9.20;;;7.00;;
78856;SDS011;68207;50.078;19.936;2024-03-23T10:43:25;8.20;;;5.80;;
78856;SDS011;68207;50.078;19.936;2024-03-23T10:45:50;7.60;;;6.20;;
78856;SDS011;68207;50.078;19.936;2024-03-23T10:48:15;6.90;;;5.40;;
78856;SDS011;68207;50.078;19.936;2024-03-23T10:50:40;8.50;;;5.20;;
78856;SDS011;68207;50.078;19.936;2024-03-23T10:53:05;7.20;;;4.80;;
78856;SDS011;68207;50.078;19.936;2024-03-23T10:55:30;5.30;;;4.30;;
78856;SDS011;68207;50.078;19.936;2024-03-23T10:57:57;5.20;;;3.90;;
78856;SDS011;68207;50.078;19.936;2024-03-23T11:00:24;6.40;;;4.10;;
78856;SDS011;68207;50.078;19.936;2024-03-23T11:02:49;6.00;;;3.90;;
78856;SDS011;68207;50.078;19.936;2024-03-23T11:07:52;5.10;;;3.90;;
78856;SDS011;68207;50.078;19.936;2024-03-23T11:10:30;6.50;;;4.00;;
78856;SDS011;68207;50.078;19.936;2024-03-23T11:12:58;3.50;;;3.20;;
78856;SDS011;68207;50.078;19.936;2024-03-23T11:15:41;5.20;;;3.80;;
78856;SDS011;68207;50.078;19.936;2024-03-23T11:18:06;6.30;;;3.70;;
78856;SDS011;68207;50.078;19.936;2024-03-23T11:20:34;4.10;;;2.90;;
78856;SDS011;68207;50.078;19.936;2024-03-23T11:22:59;5.10;;;3.10;;
78856;SDS011;68207;50.078;19.936;2024-03-23T11:25:25;3.50;;;3.10;;
78856;SDS011;68207;50.078;19.936;2024-03-23T11:27:51;5.00;;;3.40;;
78856;SDS011;68207;50.078;19.936;2024-03-23T11:32:46;6.40;;;3.40;;
78856;SDS011;68207;50.078;19.936;2024-03-23T11:35:27;4.80;;;3.80;;
78856;SDS011;68207;50.078;19.936;2024-03-23T11:40:30;4.70;;;3.80;;
78856;SDS011;68207;50.078;19.936;2024-03-23T11:42:56;5.30;;;3.60;;
78856;SDS011;68207;50.078;19.936;2024-03-23T11:45:21;8.00;;;3.90;;
78856;SDS011;68207;50.078;19.936;2024-03-23T11:47:46;5.40;;;3.80;;
78856;SDS011;68207;50.078;19.936;2024-03-23T11:50:18;4.60;;;3.70;;
78856;SDS011;68207;50.078;19.936;2024-03-23T11:52:44;4.40;;;3.90;;
78856;SDS011;68207;50.078;19.936;2024-03-23T11:55:09;6.00;;;3.80;;
78856;SDS011;68207;50.078;19.936;2024-03-23T11:57:34;4.80;;;3.30;;
78856;SDS011;68207;50.078;19.936;2024-03-23T11:59:59;4.40;;;3.40;;
78856;SDS011;68207;50.078;19.936;2024-03-23T12:02:25;4.30;;;3.60;;
78856;SDS011;68207;50.078;19.936;2024-03-23T12:04:50;4.40;;;3.60;;
78856;SDS011;68207;50.078;19.936;2024-03-23T12:09:41;4.50;;;3.80;;
78856;SDS011;68207;50.078;19.936;2024-03-23T12:12:10;4.10;;;3.20;;
78856;SDS011;68207;50.078;19.936;2024-03-23T12:14:35;5.20;;;2.90;;
78856;SDS011;68207;50.078;19.936;2024-03-23T12:17:07;5.40;;;3.40;;
78856;SDS011;68207;50.078;19.936;2024-03-23T12:19:32;5.50;;;3.80;;
78856;SDS011;68207;50.078;19.936;2024-03-23T12:21:57;3.40;;;2.90;;
78856;SDS011;68207;50.078;19.936;2024-03-23T12:24:23;4.20;;;2.80;;
78856;SDS011;68207;50.078;19.936;2024-03-23T12:26:48;4.50;;;2.70;;
78856;SDS011;68207;50.078;19.936;2024-03-23T12:29:15;5.70;;;3.10;;
78856;SDS011;68207;50.078;19.936;2024-03-23T12:31:40;3.60;;;2.80;;
78856;SDS011;68207;50.078;19.936;2024-03-23T12:34:05;4.00;;;2.70;;
78856;SDS011;68207;50.078;19.936;2024-03-23T12:38:56;4.50;;;3.00;;
78856;SDS011;68207;50.078;19.936;2024-03-23T12:41:21;3.30;;;2.60;;
78856;SDS011;68207;50.078;19.936;2024-03-23T12:43:46;4.60;;;2.50;;
78856;SDS011;68207;50.078;19.936;2024-03-23T12:46:11;5.20;;;2.20;;
78856;SDS011;68207;50.078;19.936;2024-03-23T12:48:37;4.50;;;2.50;;
78856;SDS011;68207;50.078;19.936;2024-03-23T12:51:02;3.10;;;2.20;;
78856;SDS011;68207;50.078;19.936;2024-03-23T12:53:27;4.70;;;2.20;;
78856;SDS011;68207;50.078;19.936;2024-03-23T12:55:52;5.10;;;2.50;;
78856;SDS011;68207;50.078;19.936;2024-03-23T12:58:17;5.60;;;2.70;;
78856;SDS011;68207;50.078;19.936;2024-03-23T13:00:42;3.50;;;2.10;;
78856;SDS011;68207;50.078;19.936;2024-03-23T13:03:09;4.30;;;2.40;;
78856;SDS011;68207;50.078;19.936;2024-03-23T13:05:38;3.90;;;2.50;;
78856;SDS011;68207;50.078;19.936;2024-03-23T13:08:03;3.20;;;2.40;;
78856;SDS011;68207;50.078;19.936;2024-03-23T13:10:28;3.40;;;2.10;;
78856;SDS011;68207;50.078;19.936;2024-03-23T13:12:54;3.60;;;2.30;;
78856;SDS011;68207;50.078;19.936;2024-03-23T13:15:19;2.90;;;2.30;;
78856;SDS011;68207;50.078;19.936;2024-03-23T13:17:45;4.00;;;2.40;;
78856;SDS011;68207;50.078;19.936;2024-03-23T13:20:10;3.50;;;2.40;;
78856;SDS011;68207;50.078;19.936;2024-03-23T13:22:39;4.30;;;2.30;;
78856;SDS011;68207;50.078;19.936;2024-03-23T13:25:04;2.80;;;2.10;;
78856;SDS011;68207;50.078;19.936;2024-03-23T13:27:29;3.30;;;2.20;;
78856;SDS011;68207;50.078;19.936;2024-03-23T13:29:54;3.20;;;2.10;;
78856;SDS011;68207;50.078;19.936;2024-03-23T13:32:19;7.90;;;2.50;;
78856;SDS011;68207;50.078;19.936;2024-03-23T13:34:45;5.80;;;2.20;;
78856;SDS011;68207;50.078;19.936;2024-03-23T13:37:10;3.20;;;2.00;;
78856;SDS011;68207;50.078;19.936;2024-03-23T13:39:35;2.90;;;1.90;;
78856;SDS011;68207;50.078;19.936;2024-03-23T13:42:00;5.30;;;2.00;;
78856;SDS011;68207;50.078;19.936;2024-03-23T13:44:25;3.60;;;2.00;;
78856;SDS011;68207;50.078;19.936;2024-03-23T13:46:51;3.90;;;2.40;;
78856;SDS011;68207;50.078;19.936;2024-03-23T13:49:29;4.80;;;2.10;;
78856;SDS011;68207;50.078;19.936;2024-03-23T13:51:55;5.40;;;2.10;;
78856;SDS011;68207;50.078;19.936;2024-03-23T13:54:20;3.30;;;1.90;;
78856;SDS011;68207;50.078;19.936;2024-03-23T13:56:47;3.00;;;2.00;;
78856;SDS011;68207;50.078;19.936;2024-03-23T13:59:12;6.70;;;2.30;;
78856;SDS011;68207;50.078;19.936;2024-03-23T14:01:38;3.70;;;1.90;;
78856;SDS011;68207;50.078;19.936;2024-03-23T14:04:03;3.50;;;1.90;;
78856;SDS011;68207;50.078;19.936;2024-03-23T14:06:28;6.80;;;2.70;;
78856;SDS011;68207;50.078;19.936;2024-03-23T14:08:53;6.30;;;2.30;;
78856;SDS011;68207;50.078;19.936;2024-03-23T14:11:18;7.40;;;2.30;;
78856;SDS011;68207;50.078;19.936;2024-03-23T14:13:44;3.50;;;2.00;;
78856;SDS011;68207;50.078;19.936;2024-03-23T14:16:09;3.70;;;2.00;;
78856;SDS011;68207;50.078;19.936;2024-03-23T14:18:34;3.30;;;2.20;;
78856;SDS011;68207;50.078;19.936;2024-03-23T14:21:00;15.20;;;2.30;;
78856;SDS011;68207;50.078;19.936;2024-03-23T14:23:26;6.60;;;2.00;;
78856;SDS011;68207;50.078;19.936;2024-03-23T14:28:16;6.30;;;1.90;;
78856;SDS011;68207;50.078;19.936;2024-03-23T14:30:41;6.40;;;2.20;;
78856;SDS011;68207;50.078;19.936;2024-03-23T14:33:07;4.20;;;2.40;;
78856;SDS011;68207;50.078;19.936;2024-03-23T14:35:32;5.30;;;2.30;;
78856;SDS011;68207;50.078;19.936;2024-03-23T14:37:58;20.10;;;4.00;;
78856;SDS011;68207;50.078;19.936;2024-03-23T14:40:23;14.00;;;3.70;;
78856;SDS011;68207;50.078;19.936;2024-03-23T14:42:51;156.10;;;12.10;;
78856;SDS011;68207;50.078;19.936;2024-03-23T14:45:16;40.40;;;4.00;;
78856;SDS011;68207;50.078;19.936;2024-03-23T14:47:41;10.50;;;2.80;;
78856;SDS011;68207;50.078;19.936;2024-03-23T14:50:07;4.30;;;1.70;;
78856;SDS011;68207;50.078;19.936;2024-03-23T14:52:33;4.50;;;1.90;;
78856;SDS011;68207;50.078;19.936;2024-03-23T14:54:58;5.30;;;1.60;;
78856;SDS011;68207;50.078;19.936;2024-03-23T14:57:23;2.90;;;1.50;;
78856;SDS011;68207;50.078;19.936;2024-03-23T14:59:49;4.30;;;1.60;;
78856;SDS011;68207;50.078;19.936;2024-03-23T15:02:14;3.10;;;1.30;;
78856;SDS011;68207;50.078;19.936;2024-03-23T15:04:39;3.60;;;2.00;;
78856;SDS011;68207;50.078;19.936;2024-03-23T15:07:06;4.60;;;1.60;;
78856;SDS011;68207;50.078;19.936;2024-03-23T15:09:32;2.30;;;1.40;;
78856;SDS011;68207;50.078;19.936;2024-03-23T15:11:57;3.20;;;1.60;;
78856;SDS011;68207;50.078;19.936;2024-03-23T15:14:23;2.10;;;1.30;;
78856;SDS011;68207;50.078;19.936;2024-03-23T15:16:48;2.00;;;1.50;;
78856;SDS011;68207;50.078;19.936;2024-03-23T15:19:14;3.90;;;1.70;;
78856;SDS011;68207;50.078;19.936;2024-03-23T15:21:40;3.80;;;1.50;;
78856;SDS011;68207;50.078;19.936;2024-03-23T15:24:05;2.70;;;1.30;;
78856;SDS011;68207;50.078;19.936;2024-03-23T15:26:30;2.60;;;1.50;;
78856;SDS011;68207;50.078;19.936;2024-03-23T15:28:55;4.70;;;1.90;;